Texas — KTEO — position and weather

sailwx.info

Track history (hours):
 
Tides and Currents Weather Stations Pressure Air Temp Water Temp Dewpoint Dewpoint Depression Visibility Wind Speed Wind Dir Waves Ship Positions

Texas

Owner: Crowley Petroleum Services, Inc., Jacksonville, FL. More information available from US FCC via Universal Licensing System and Coast Guard Vessel Documentation Center.

Last reported at 2017-Nov-20 00:31 UTC. Time now 2017-Nov-21 21:06 UTC.
Position N 26°39' W 079°52'.

Length 183 m; draft 9.7 m.

Type: Tanker. MMSI: 369037000.

Date/timePositionNaut miles runAvg speedWind from/ knotsBaromVisibWave heightAir tempDewpointWater temp
2017-Nov-20 00:31N 26°39' W 079°52'816.5
2017-Nov-20 00:00N 26°30' W 079°52'816.4
2017-Nov-19 23:31N 26°22' W 079°53'816.3
2017-Nov-19 23:00N 26°14' W 079°54'816.3
2017-Nov-19 22:31N 26°06' W 079°55'816.3
2017-Nov-19 22:01N 25°58' W 079°55'816.4
2017-Nov-19 21:30N 25°50' W 079°55'816.3
2017-Nov-19 21:00N 25°42' W 079°56'816.3
2017-Nov-19 20:31N 25°33' W 079°57'815.9
2017-Nov-19 20:00N 25°26' W 079°58'202 6.6
2017-Nov-18 13:39N 27°36' W 082°50'211.9
2017-Nov-18 13:28N 27°37' W 082°47'5 9.6
2017-Nov-18 12:59N 27°37' W 082°42'711.2
2017-Nov-18 12:23N 27°40' W 082°36'512.4
2017-Nov-18 12:00N 27°43' W 082°32'510.9
2017-Nov-18 11:30N 27°48' W 082°29'510.5
2017-Nov-18 11:00N 27°53' W 082°26'2 4.6
2017-Nov-18 10:30N 27°55' W 082°27'0 0.0
2017-Nov-18 09:55N 27°55' W 082°27'0 0.0
2017-Nov-18 09:22N 27°55' W 082°27'0 0.0
2017-Nov-18 08:55N 27°55' W 082°27'0 0.0
2017-Nov-18 08:25N 27°55' W 082°27'0 0.0
2017-Nov-18 07:55N 27°55' W 082°27'0 0.0
2017-Nov-18 07:28N 27°55' W 082°27'0 0.0
2017-Nov-18 06:58N 27°55' W 082°27'0 0.0
2017-Nov-18 06:16N 27°55' W 082°27'0 0.0
2017-Nov-18 05:58N 27°55' W 082°27'0 0.0
2017-Nov-18 05:28N 27°55' W 082°27'0 0.0
2017-Nov-18 04:58N 27°55' W 082°27'0 0.0
2017-Nov-18 04:28N 27°55' W 082°27'0 0.0
2017-Nov-18 03:58N 27°55' W 082°27'0 0.0
2017-Nov-18 03:22N 27°55' W 082°27'0 0.0
2017-Nov-18 02:58N 27°55' W 082°27'0 0.0
2017-Nov-18 02:19N 27°55' W 082°27'0 0.0
2017-Nov-18 01:58N 27°55' W 082°27'0 0.0
2017-Nov-18 01:28N 27°55' W 082°27'0 0.0
2017-Nov-18 00:52N 27°55' W 082°27'0 0.0
2017-Nov-18 00:28N 27°55' W 082°27'0 0.0
2017-Nov-17 23:58N 27°55' W 082°27'0 0.0
2017-Nov-17 23:25N 27°55' W 082°27'0 0.0
2017-Nov-17 22:58N 27°55' W 082°27'0 0.0
2017-Nov-17 22:28N 27°55' W 082°27'0 0.0
2017-Nov-17 21:58N 27°55' W 082°27'0 0.0
2017-Nov-17 21:28N 27°55' W 082°27'0 0.0
2017-Nov-17 20:58N 27°55' W 082°27'0 0.0
2017-Nov-17 20:28N 27°55' W 082°27'0 0.0
2017-Nov-17 19:58N 27°55' W 082°27'0 0.0
2017-Nov-17 19:28N 27°55' W 082°27'0 0.0
2017-Nov-17 18:55N 27°55' W 082°27'0 0.0
2017-Nov-17 18:28N 27°55' W 082°27'0 0.0
2017-Nov-17 17:58N 27°55' W 082°27'0 0.0
2017-Nov-17 17:22N 27°55' W 082°27'0 0.0
2017-Nov-17 16:58N 27°55' W 082°27'0 0.0
2017-Nov-17 16:28N 27°55' W 082°27'0 0.0
2017-Nov-17 15:58N 27°55' W 082°27'0 0.0
2017-Nov-17 15:28N 27°55' W 082°27'0 0.0
2017-Nov-17 14:58N 27°55' W 082°27'0 0.0
2017-Nov-17 14:28N 27°55' W 082°27'0 0.0
2017-Nov-17 13:55N 27°55' W 082°27'0 0.0
2017-Nov-17 13:28N 27°55' W 082°27'0 0.0
2017-Nov-17 12:58N 27°55' W 082°27'0 0.0
2017-Nov-17 12:28N 27°55' W 082°27'0 0.0
2017-Nov-17 11:58N 27°55' W 082°27'0 0.0
2017-Nov-17 11:28N 27°55' W 082°27'0 0.0
2017-Nov-17 10:58N 27°55' W 082°27'0 0.0
2017-Nov-17 10:28N 27°55' W 082°27'0 0.0
2017-Nov-17 09:58N 27°55' W 082°27'0 0.0
2017-Nov-17 09:22N 27°55' W 082°27'0 0.0
2017-Nov-17 08:58N 27°55' W 082°27'0 0.0
2017-Nov-17 08:25N 27°55' W 082°27'0 0.0
2017-Nov-17 07:58N 27°55' W 082°27'0 0.0
2017-Nov-17 07:25N 27°55' W 082°27'0 0.0
2017-Nov-17 06:58N 27°55' W 082°27'0 0.0
2017-Nov-17 06:28N 27°55' W 082°27'0 0.0
2017-Nov-17 06:01N 27°55' W 082°27'1 1.4
2017-Nov-17 05:31N 27°54' W 082°26'4 8.7
2017-Nov-17 05:00N 27°50' W 082°27'510.8
2017-Nov-17 04:30N 27°47' W 082°31'611.7
2017-Nov-17 04:01N 27°41' W 082°34'612.1
2017-Nov-17 03:30N 27°37' W 082°39'712.6
2017-Nov-17 02:58N 27°37' W 082°47'  
2017-Nov-12 12:51N 29°59' W 093°53'26 7.5
2017-Nov-12 09:28N 29°34' W 093°44'  
Track history (hours):
 
Tides and Currents Weather Stations Pressure Air Temp Water Temp Dewpoint Dewpoint Depression Visibility Wind Speed Wind Dir Waves Ship Positions

Texas

Owner: Crowley Petroleum Services, Inc., Jacksonville, FL. More information available from US FCC via Universal Licensing System and Coast Guard Vessel Documentation Center.

Last reported at 2017-Nov-20 00:31 UTC. Time now 2017-Nov-21 21:06 UTC.
Position N 26°39' W 079°52'.

Length 183 m; draft 9.7 m.

Type: Tanker. MMSI: 369037000.

Date/timePositionNaut miles runAvg speedWind from/ knotsBaromVisibWave heightAir tempDewpointWater temp
2017-Nov-20 00:31N 26°39' W 079°52'816.5
2017-Nov-20 00:00N 26°30' W 079°52'816.4
2017-Nov-19 23:31N 26°22' W 079°53'816.3
2017-Nov-19 23:00N 26°14' W 079°54'816.3
2017-Nov-19 22:31N 26°06' W 079°55'816.3
2017-Nov-19 22:01N 25°58' W 079°55'816.4
2017-Nov-19 21:30N 25°50' W 079°55'816.3
2017-Nov-19 21:00N 25°42' W 079°56'816.3
2017-Nov-19 20:31N 25°33' W 079°57'815.9
2017-Nov-19 20:00N 25°26' W 079°58'202 6.6
2017-Nov-18 13:39N 27°36' W 082°50'211.9
2017-Nov-18 13:28N 27°37' W 082°47'5 9.6
2017-Nov-18 12:59N 27°37' W 082°42'711.2
2017-Nov-18 12:23N 27°40' W 082°36'512.4
2017-Nov-18 12:00N 27°43' W 082°32'510.9
2017-Nov-18 11:30N 27°48' W 082°29'510.5
2017-Nov-18 11:00N 27°53' W 082°26'2 4.6
2017-Nov-18 10:30N 27°55' W 082°27'0 0.0
2017-Nov-18 09:55N 27°55' W 082°27'0 0.0
2017-Nov-18 09:22N 27°55' W 082°27'0 0.0
2017-Nov-18 08:55N 27°55' W 082°27'0 0.0
2017-Nov-18 08:25N 27°55' W 082°27'0 0.0
2017-Nov-18 07:55N 27°55' W 082°27'0 0.0
2017-Nov-18 07:28N 27°55' W 082°27'0 0.0
2017-Nov-18 06:58N 27°55' W 082°27'0 0.0
2017-Nov-18 06:16N 27°55' W 082°27'0 0.0
2017-Nov-18 05:58N 27°55' W 082°27'0 0.0
2017-Nov-18 05:28N 27°55' W 082°27'0 0.0
2017-Nov-18 04:58N 27°55' W 082°27'0 0.0
2017-Nov-18 04:28N 27°55' W 082°27'0 0.0
2017-Nov-18 03:58N 27°55' W 082°27'0 0.0
2017-Nov-18 03:22N 27°55' W 082°27'0 0.0
2017-Nov-18 02:58N 27°55' W 082°27'0 0.0
2017-Nov-18 02:19N 27°55' W 082°27'0 0.0
2017-Nov-18 01:58N 27°55' W 082°27'0 0.0
2017-Nov-18 01:28N 27°55' W 082°27'0 0.0
2017-Nov-18 00:52N 27°55' W 082°27'0 0.0
2017-Nov-18 00:28N 27°55' W 082°27'0 0.0
2017-Nov-17 23:58N 27°55' W 082°27'0 0.0
2017-Nov-17 23:25N 27°55' W 082°27'0 0.0
2017-Nov-17 22:58N 27°55' W 082°27'0 0.0
2017-Nov-17 22:28N 27°55' W 082°27'0 0.0
2017-Nov-17 21:58N 27°55' W 082°27'0 0.0
2017-Nov-17 21:28N 27°55' W 082°27'0 0.0
2017-Nov-17 20:58N 27°55' W 082°27'0 0.0
2017-Nov-17 20:28N 27°55' W 082°27'0 0.0
2017-Nov-17 19:58N 27°55' W 082°27'0 0.0
2017-Nov-17 19:28N 27°55' W 082°27'0 0.0
2017-Nov-17 18:55N 27°55' W 082°27'0 0.0
2017-Nov-17 18:28N 27°55' W 082°27'0 0.0
2017-Nov-17 17:58N 27°55' W 082°27'0 0.0
2017-Nov-17 17:22N 27°55' W 082°27'0 0.0
2017-Nov-17 16:58N 27°55' W 082°27'0 0.0
2017-Nov-17 16:28N 27°55' W 082°27'0 0.0
2017-Nov-17 15:58N 27°55' W 082°27'0 0.0
2017-Nov-17 15:28N 27°55' W 082°27'0 0.0
2017-Nov-17 14:58N 27°55' W 082°27'0 0.0
2017-Nov-17 14:28N 27°55' W 082°27'0 0.0
2017-Nov-17 13:55N 27°55' W 082°27'0 0.0
2017-Nov-17 13:28N 27°55' W 082°27'0 0.0
2017-Nov-17 12:58N 27°55' W 082°27'0 0.0
2017-Nov-17 12:28N 27°55' W 082°27'0 0.0
2017-Nov-17 11:58N 27°55' W 082°27'0 0.0
2017-Nov-17 11:28N 27°55' W 082°27'0 0.0
2017-Nov-17 10:58N 27°55' W 082°27'0 0.0
2017-Nov-17 10:28N 27°55' W 082°27'0 0.0
2017-Nov-17 09:58N 27°55' W 082°27'0 0.0
2017-Nov-17 09:22N 27°55' W 082°27'0 0.0
2017-Nov-17 08:58N 27°55' W 082°27'0 0.0
2017-Nov-17 08:25N 27°55' W 082°27'0 0.0
2017-Nov-17 07:58N 27°55' W 082°27'0 0.0
2017-Nov-17 07:25N 27°55' W 082°27'0 0.0
2017-Nov-17 06:58N 27°55' W 082°27'0 0.0
2017-Nov-17 06:28N 27°55' W 082°27'0 0.0
2017-Nov-17 06:01N 27°55' W 082°27'1 1.4
2017-Nov-17 05:31N 27°54' W 082°26'4 8.7
2017-Nov-17 05:00N 27°50' W 082°27'510.8
2017-Nov-17 04:30N 27°47' W 082°31'611.7
2017-Nov-17 04:01N 27°41' W 082°34'612.1
2017-Nov-17 03:30N 27°37' W 082°39'712.6
2017-Nov-17 02:58N 27°37' W 082°47'  
2017-Nov-12 12:51N 29°59' W 093°53'26 7.5
2017-Nov-12 09:28N 29°34' W 093°44'  

Dump ship's entire track history